Time;durP1;ratioP1;P1;durP2;ratioP2;P2;SDS_P1;SDS_P2;PMS_P1;PMS_P2;Temp;Humidity;BMP_temperature;BMP_pressure;BME280_temperature;BME280_humidity;BME280_pressure;Samples;Min_cycle;Max_cycle;Signal;HPM_P1;HPM_P2
2023/10/25 00:00:02;;;;;;;12.98;6.28;;;;;;;;;;4997933;28;20069;-68
2023/10/25 00:02:28;;;;;;;11.60;5.88;;;;;;;;;;4997684;28;20038;-68
2023/10/25 00:04:55;;;;;;;16.20;7.15;;;;;;;;;;4995641;28;20069;-68
2023/10/25 00:07:21;;;;;;;12.38;6.13;;;;;;;;;;4998031;28;20037;-68
2023/10/25 00:09:47;;;;;;;11.93;6.40;;;;;;;;;;4998222;28;20037;-68
2023/10/25 00:12:13;;;;;;;15.43;6.63;;;;;;;;;;5016065;28;21676;-68
2023/10/25 00:14:39;;;;;;;13.18;5.80;;;;;;;;;;4998270;28;20041;-68
2023/10/25 00:17:05;;;;;;;11.98;5.55;;;;;;;;;;4997278;28;20030;-68
2023/10/25 00:19:31;;;;;;;12.73;5.50;;;;;;;;;;4998600;28;20052;-68
2023/10/25 00:21:57;;;;;;;12.23;5.50;;;;;;;;;;4998308;28;20030;-68
2023/10/25 00:24:23;;;;;;;11.15;4.93;;;;;;;;;;4999443;28;20558;-68
2023/10/25 00:26:52;;;;;;;12.27;5.57;;;;;;;;;;4997841;28;20068;-68
2023/10/25 00:29:18;;;;;;;11.15;5.57;;;;;;;;;;4999732;28;20052;-68
2023/10/25 00:31:45;;;;;;;12.93;5.35;;;;;;;;;;4997551;28;20072;-68
2023/10/25 00:34:11;;;;;;;10.60;5.05;;;;;;;;;;4998055;28;20540;-68
2023/10/25 00:36:37;;;;;;;10.50;4.75;;;;;;;;;;4995911;28;20041;-68
2023/10/25 00:39:03;;;;;;;11.85;5.28;;;;;;;;;;4998913;28;20026;-67
2023/10/25 00:41:29;;;;;;;13.20;5.70;;;;;;;;;;4997639;28;20820;-68
2023/10/25 00:43:55;;;;;;;14.05;4.82;;;;;;;;;;5013885;28;20098;-68
2023/10/25 00:46:29;;;;;;;12.57;5.38;;;;;;;;;;4993757;28;20535;-68
2023/10/25 00:48:57;;;;;;;9.75;5.13;;;;;;;;;;4998203;28;20080;-68
2023/10/25 00:51:23;;;;;;;8.63;4.88;;;;;;;;;;4997336;28;20848;-68
2023/10/25 00:53:50;;;;;;;14.43;4.63;;;;;;;;;;4997799;28;20037;-68
2023/10/25 00:56:17;;;;;;;10.68;4.68;;;;;;;;;;4997709;28;20045;-68
2023/10/25 00:58:45;;;;;;;8.75;4.25;;;;;;;;;;4997600;28;20022;-68
2023/10/25 01:01:11;;;;;;;14.80;5.20;;;;;;;;;;4997430;28;20121;-68
2023/10/25 01:03:37;;;;;;;9.57;4.35;;;;;;;;;;4997597;28;20104;-68
2023/10/25 01:06:04;;;;;;;8.75;4.03;;;;;;;;;;4997578;28;21764;-69
2023/10/25 01:08:30;;;;;;;12.02;4.88;;;;;;;;;;4997015;28;20034;-69
2023/10/25 01:10:56;;;;;;;13.07;4.40;;;;;;;;;;4998289;28;20021;-68
2023/10/25 01:13:22;;;;;;;8.30;4.63;;;;;;;;;;4996824;28;20149;-68
2023/10/25 01:15:48;;;;;;;11.38;4.20;;;;;;;;;;4997731;28;20037;-68
2023/10/25 01:18:15;;;;;;;8.93;4.70;;;;;;;;;;4997360;28;20915;-69
2023/10/25 01:20:41;;;;;;;10.68;5.05;;;;;;;;;;4998350;28;20041;-69
2023/10/25 01:23:07;;;;;;;10.25;4.63;;;;;;;;;;4997469;28;20022;-68
2023/10/25 01:25:34;;;;;;;11.48;4.32;;;;;;;;;;5000538;28;20033;-69
2023/10/25 01:28:00;;;;;;;13.15;5.20;;;;;;;;;;5001491;28;20049;-68
2023/10/25 01:30:26;;;;;;;12.38;4.63;;;;;;;;;;5001347;28;20037;-68
2023/10/25 01:32:53;;;;;;;9.68;4.22;;;;;;;;;;5001125;28;20168;-68
2023/10/25 01:35:19;;;;;;;16.17;4.80;;;;;;;;;;5001669;28;20029;-68
2023/10/25 01:37:45;;;;;;;9.75;4.40;;;;;;;;;;5001928;28;20063;-68
2023/10/25 01:40:12;;;;;;;10.45;4.55;;;;;;;;;;5001747;28;20808;-68
2023/10/25 01:42:38;;;;;;;9.40;4.28;;;;;;;;;;5000118;28;20132;-68
2023/10/25 01:45:04;;;;;;;13.50;4.57;;;;;;;;;;5001412;28;20077;-68
2023/10/25 01:47:30;;;;;;;11.52;4.70;;;;;;;;;;4999575;28;20511;-68
2023/10/25 01:49:56;;;;;;;10.00;4.53;;;;;;;;;;5001272;28;20164;-68
2023/10/25 01:52:22;;;;;;;15.50;5.03;;;;;;;;;;5000444;28;20125;-68
2023/10/25 01:54:50;;;;;;;9.73;4.90;;;;;;;;;;5000709;28;20105;-68
2023/10/25 01:57:16;;;;;;;9.35;4.68;;;;;;;;;;5000362;28;20050;-68
2023/10/25 01:59:43;;;;;;;9.50;5.32;;;;;;;;;;4999621;28;20060;-68
2023/10/25 02:02:10;;;;;;;15.60;5.28;;;;;;;;;;4999280;28;20021;-68
2023/10/25 02:04:36;;;;;;;12.27;5.07;;;;;;;;;;5000018;28;20021;-68
2023/10/25 02:07:02;;;;;;;13.40;4.43;;;;;;;;;;5001223;28;20091;-68
2023/10/25 02:09:28;;;;;;;12.70;5.40;;;;;;;;;;5002422;28;20560;-69
2023/10/25 02:11:54;;;;;;;13.63;5.03;;;;;;;;;;4999759;28;20374;-68
2023/10/25 02:14:21;;;;;;;12.30;5.45;;;;;;;;;;5000387;28;21740;-68
2023/10/25 02:16:47;;;;;;;10.40;5.25;;;;;;;;;;5000641;28;20045;-68
2023/10/25 02:19:13;;;;;;;8.57;5.00;;;;;;;;;;5000995;28;20039;-68
2023/10/25 02:21:39;;;;;;;19.83;5.57;;;;;;;;;;5000279;28;20431;-68
2023/10/25 02:24:05;;;;;;;15.57;5.45;;;;;;;;;;5000888;28;21510;-68
2023/10/25 02:26:32;;;;;;;13.27;5.28;;;;;;;;;;5000975;28;20155;-67
2023/10/25 02:28:58;;;;;;;11.02;5.82;;;;;;;;;;5000052;28;20033;-68
2023/10/25 02:31:24;;;;;;;12.90;5.80;;;;;;;;;;5000358;28;20034;-68
2023/10/25 02:33:51;;;;;;;11.80;5.32;;;;;;;;;;5000490;28;20688;-69
2023/10/25 02:36:17;;;;;;;16.73;6.20;;;;;;;;;;4999509;28;20500;-68
2023/10/25 02:38:43;;;;;;;12.07;5.28;;;;;;;;;;5000959;28;20056;-68
2023/10/25 02:41:09;;;;;;;11.75;6.18;;;;;;;;;;5000673;28;20033;-68
2023/10/25 02:43:35;;;;;;;13.93;6.07;;;;;;;;;;4999397;28;20026;-68
2023/10/25 02:46:08;;;;;;;13.43;6.55;;;;;;;;;;4999920;28;20699;-68
2023/10/25 02:48:36;;;;;;;14.25;5.75;;;;;;;;;;5000592;28;20029;-68
2023/10/25 02:51:03;;;;;;;13.35;5.75;;;;;;;;;;5001030;28;20029;-68
2023/10/25 02:53:29;;;;;;;10.52;5.75;;;;;;;;;;5000669;28;20276;-69
2023/10/25 02:56:05;;;;;;;13.27;5.30;;;;;;;;;;5000446;28;20045;-68
2023/10/25 02:58:31;;;;;;;12.90;6.13;;;;;;;;;;5000439;28;20396;-68
2023/10/25 03:00:57;;;;;;;16.95;6.75;;;;;;;;;;4999882;28;20026;-68
2023/10/25 03:03:24;;;;;;;10.15;5.82;;;;;;;;;;4997035;28;20683;-68
2023/10/25 03:05:50;;;;;;;12.27;6.70;;;;;;;;;;4997788;28;20026;-68
2023/10/25 03:08:16;;;;;;;12.38;6.25;;;;;;;;;;4995030;28;20120;-69
2023/10/25 03:10:42;;;;;;;14.90;6.15;;;;;;;;;;5000556;28;20033;-69
2023/10/25 03:13:08;;;;;;;11.65;6.22;;;;;;;;;;4999617;28;20037;-68
2023/10/25 03:15:34;;;;;;;11.65;5.80;;;;;;;;;;4999752;28;20037;-68
2023/10/25 03:18:01;;;;;;;12.45;6.25;;;;;;;;;;5000130;28;20976;-68
2023/10/25 03:20:28;;;;;;;11.75;7.05;;;;;;;;;;5000212;28;20746;-68
2023/10/25 03:22:54;;;;;;;15.63;7.00;;;;;;;;;;5000148;28;21026;-69
2023/10/25 03:25:20;;;;;;;14.30;6.32;;;;;;;;;;5000325;28;20443;-68
2023/10/25 03:27:46;;;;;;;18.40;7.90;;;;;;;;;;5000102;28;20029;-69
2023/10/25 03:30:12;;;;;;;11.80;6.45;;;;;;;;;;5000309;28;20042;-68
2023/10/25 03:32:38;;;;;;;17.52;7.88;;;;;;;;;;4999724;28;20044;-68
2023/10/25 03:35:06;;;;;;;16.92;7.22;;;;;;;;;;4999529;28;20034;-68
2023/10/25 03:37:32;;;;;;;12.00;7.00;;;;;;;;;;4999170;28;20033;-68
2023/10/25 03:39:58;;;;;;;13.32;6.93;;;;;;;;;;4999907;28;20503;-68
2023/10/25 03:42:24;;;;;;;16.90;7.90;;;;;;;;;;4998846;28;20034;-68
2023/10/25 03:44:50;;;;;;;14.55;7.57;;;;;;;;;;4998722;28;20575;-68
2023/10/25 03:47:16;;;;;;;12.88;7.55;;;;;;;;;;4998843;28;20030;-68
2023/10/25 03:49:42;;;;;;;15.55;8.13;;;;;;;;;;4998721;28;20042;-68
2023/10/25 03:52:08;;;;;;;16.95;7.68;;;;;;;;;;4998146;28;20025;-68
2023/10/25 03:54:41;;;;;;;18.17;7.88;;;;;;;;;;4998806;28;20025;-68
2023/10/25 03:57:07;;;;;;;12.37;8.20;;;;;;;;;;4998792;28;20121;-68
2023/10/25 03:59:33;;;;;;;15.82;7.45;;;;;;;;;;4998636;28;20274;-68
2023/10/25 04:01:59;;;;;;;14.27;8.02;;;;;;;;;;4999497;28;20075;-68
2023/10/25 04:04:25;;;;;;;14.77;8.00;;;;;;;;;;4998715;28;20099;-68
2023/10/25 04:06:51;;;;;;;15.45;7.72;;;;;;;;;;4999099;28;20065;-68
2023/10/25 04:09:17;;;;;;;12.57;8.38;;;;;;;;;;4998451;28;20052;-68
2023/10/25 04:11:43;;;;;;;23.20;9.70;;;;;;;;;;4996831;28;20038;-68
2023/10/25 04:14:09;;;;;;;18.13;8.70;;;;;;;;;;4998315;28;20045;-68
2023/10/25 04:16:35;;;;;;;15.23;8.52;;;;;;;;;;4997508;28;20105;-68
2023/10/25 04:19:01;;;;;;;14.18;8.20;;;;;;;;;;4998580;28;20030;-68
2023/10/25 04:21:28;;;;;;;16.95;8.82;;;;;;;;;;4998205;28;20045;-68
2023/10/25 04:23:54;;;;;;;13.10;7.20;;;;;;;;;;4998842;28;20026;-68
2023/10/25 04:26:20;;;;;;;15.00;8.45;;;;;;;;;;4998713;28;20029;-68
2023/10/25 04:28:46;;;;;;;15.02;8.48;;;;;;;;;;4997270;28;20108;-68
2023/10/25 04:31:12;;;;;;;14.77;8.45;;;;;;;;;;4998763;28;20782;-68
2023/10/25 04:33:39;;;;;;;15.88;8.32;;;;;;;;;;4998030;28;20041;-68
2023/10/25 04:36:05;;;;;;;13.32;8.00;;;;;;;;;;4998778;28;20052;-68
2023/10/25 04:38:32;;;;;;;24.38;8.90;;;;;;;;;;4998145;28;20100;-68
2023/10/25 04:40:58;;;;;;;17.60;8.68;;;;;;;;;;4997755;28;20045;-68
2023/10/25 04:43:24;;;;;;;14.40;7.63;;;;;;;;;;4997825;28;20563;-68
2023/10/25 04:45:54;;;;;;;16.60;7.45;;;;;;;;;;4997296;28;20022;-68
2023/10/25 04:48:20;;;;;;;14.77;7.07;;;;;;;;;;4998473;28;21042;-68
2023/10/25 04:50:46;;;;;;;14.02;7.85;;;;;;;;;;4998392;28;20041;-68
2023/10/25 04:53:12;;;;;;;12.60;7.47;;;;;;;;;;4998077;28;20037;-68
2023/10/25 04:55:38;;;;;;;12.95;7.22;;;;;;;;;;4997919;28;20111;-68
2023/10/25 04:58:05;;;;;;;17.75;7.45;;;;;;;;;;4995704;28;20030;-68
2023/10/25 05:00:31;;;;;;;12.15;7.53;;;;;;;;;;4997450;28;20104;-68
2023/10/25 05:02:58;;;;;;;12.07;7.32;;;;;;;;;;4996980;28;20025;-68
2023/10/25 05:05:25;;;;;;;15.27;6.82;;;;;;;;;;4996936;28;21664;-68
2023/10/25 05:07:51;;;;;;;19.98;7.68;;;;;;;;;;4997315;28;20047;-68
2023/10/25 05:10:17;;;;;;;16.85;6.90;;;;;;;;;;4997925;28;20045;-67
2023/10/25 05:12:44;;;;;;;11.02;6.93;;;;;;;;;;4997306;28;20092;-68
2023/10/25 05:15:11;;;;;;;11.63;6.85;;;;;;;;;;4996801;28;20529;-68
2023/10/25 05:17:38;;;;;;;12.95;7.68;;;;;;;;;;4995746;28;20038;-68
2023/10/25 05:20:05;;;;;;;13.35;6.82;;;;;;;;;;4997047;28;20037;-68
2023/10/25 05:22:33;;;;;;;12.82;6.72;;;;;;;;;;4997184;28;21905;-67
2023/10/25 05:24:59;;;;;;;11.55;7.13;;;;;;;;;;4997346;28;20045;-68
2023/10/25 05:27:26;;;;;;;12.48;6.40;;;;;;;;;;4997144;28;20111;-68
2023/10/25 05:29:52;;;;;;;10.95;6.75;;;;;;;;;;4997887;28;20091;-68
2023/10/25 05:32:20;;;;;;;13.52;6.20;;;;;;;;;;4997430;28;20049;-68
2023/10/25 05:34:47;;;;;;;10.55;6.57;;;;;;;;;;4996898;28;20582;-68
2023/10/25 05:37:13;;;;;;;12.27;6.68;;;;;;;;;;4997096;28;21743;-68
2023/10/25 05:39:39;;;;;;;13.80;6.85;;;;;;;;;;4997771;28;20042;-68
2023/10/25 05:42:06;;;;;;;11.32;5.78;;;;;;;;;;4996898;28;20044;-68
2023/10/25 05:44:32;;;;;;;11.32;5.97;;;;;;;;;;4996172;28;20025;-68
2023/10/25 05:46:58;;;;;;;8.90;6.07;;;;;;;;;;4994238;28;20125;-68
2023/10/25 05:49:25;;;;;;;13.73;6.28;;;;;;;;;;4995488;28;20554;-68
2023/10/25 05:51:51;;;;;;;16.52;6.50;;;;;;;;;;4995527;28;20029;-68
2023/10/25 05:54:17;;;;;;;10.95;6.93;;;;;;;;;;4993194;28;20057;-68
2023/10/25 05:56:43;;;;;;;12.75;6.47;;;;;;;;;;4996145;28;20105;-68
2023/10/25 05:59:10;;;;;;;10.63;6.13;;;;;;;;;;4995526;28;20040;-68
2023/10/25 06:01:55;;;;;;;11.05;6.10;;;;;;;;;;4996066;28;20687;-68
2023/10/25 06:04:23;;;;;;;12.77;6.38;;;;;;;;;;4996668;28;20492;-68
2023/10/25 06:06:49;;;;;;;11.25;6.07;;;;;;;;;;4992107;28;20033;-68
2023/10/25 06:09:15;;;;;;;13.73;6.80;;;;;;;;;;4997245;28;20039;-67
2023/10/25 06:11:42;;;;;;;12.75;6.47;;;;;;;;;;4999924;28;20047;-68
2023/10/25 06:14:08;;;;;;;13.20;7.45;;;;;;;;;;5000916;28;20038;-68
2023/10/25 06:16:34;;;;;;;9.63;6.05;;;;;;;;;;4996100;28;20136;-68
2023/10/25 06:19:01;;;;;;;11.45;5.72;;;;;;;;;;5000248;28;20030;-68
2023/10/25 06:21:27;;;;;;;11.70;5.32;;;;;;;;;;4999959;28;20030;-68
2023/10/25 06:23:53;;;;;;;14.57;5.78;;;;;;;;;;4999113;28;20749;-68
2023/10/25 06:26:20;;;;;;;10.02;5.55;;;;;;;;;;5000484;28;20044;-68
2023/10/25 06:28:46;;;;;;;10.18;5.35;;;;;;;;;;4999964;28;20476;-68
2023/10/25 06:31:14;;;;;;;16.00;6.63;;;;;;;;;;5000026;28;21564;-68
2023/10/25 06:33:43;;;;;;;9.27;5.43;;;;;;;;;;4999346;28;20026;-68
2023/10/25 06:36:10;;;;;;;11.02;5.85;;;;;;;;;;4998393;28;20030;-68
2023/10/25 06:38:36;;;;;;;11.82;5.38;;;;;;;;;;4998353;28;20108;-68
2023/10/25 06:41:02;;;;;;;14.55;4.95;;;;;;;;;;4999486;28;20051;-67
2023/10/25 06:43:32;;;;;;;8.23;5.45;;;;;;;;;;4999507;28;20030;-67
2023/10/25 06:46:01;;;;;;;11.75;6.50;;;;;;;;;;4999426;28;20504;-68
2023/10/25 06:48:27;;;;;;;15.25;5.43;;;;;;;;;;4999675;28;20046;-68
2023/10/25 06:50:54;;;;;;;13.35;5.63;;;;;;;;;;4999409;28;20087;-68
2023/10/25 06:53:21;;;;;;;13.15;5.07;;;;;;;;;;5000560;28;20554;-68
2023/10/25 06:55:47;;;;;;;11.80;5.50;;;;;;;;;;4998454;28;20073;-67
2023/10/25 06:58:13;;;;;;;15.07;5.82;;;;;;;;;;4999394;28;20037;-67
2023/10/25 07:00:39;;;;;;;12.48;5.75;;;;;;;;;;4999810;28;21666;-67
2023/10/25 07:03:07;;;;;;;9.57;4.88;;;;;;;;;;4999838;28;20209;-67
2023/10/25 07:05:34;;;;;;;9.20;4.93;;;;;;;;;;4995472;28;20718;-67
2023/10/25 07:08:00;;;;;;;9.38;4.50;;;;;;;;;;4999691;28;20128;-67
2023/10/25 07:10:26;;;;;;;9.15;5.20;;;;;;;;;;4999953;28;20532;-67
2023/10/25 07:12:52;;;;;;;10.60;5.15;;;;;;;;;;4998371;28;20045;-67
2023/10/25 07:15:18;;;;;;;11.23;4.70;;;;;;;;;;4999441;28;20029;-67
2023/10/25 07:17:45;;;;;;;9.43;4.78;;;;;;;;;;4999465;28;20713;-67
2023/10/25 07:20:11;;;;;;;17.08;5.40;;;;;;;;;;4999100;28;20137;-67
2023/10/25 07:22:41;;;;;;;12.82;5.13;;;;;;;;;;4999354;28;20049;-67
2023/10/25 07:25:07;;;;;;;9.73;4.70;;;;;;;;;;4999273;28;20026;-67
2023/10/25 07:27:33;;;;;;;10.73;4.88;;;;;;;;;;4998730;28;20052;-67
2023/10/25 07:29:59;;;;;;;13.90;4.90;;;;;;;;;;4997874;28;20846;-67
2023/10/25 07:32:26;;;;;;;9.40;5.07;;;;;;;;;;4999016;28;20044;-68
2023/10/25 07:34:52;;;;;;;10.13;4.60;;;;;;;;;;4999010;28;20037;-67
2023/10/25 07:37:18;;;;;;;11.45;5.30;;;;;;;;;;4999291;28;20112;-67
2023/10/25 07:39:44;;;;;;;11.25;4.82;;;;;;;;;;4999635;28;20038;-68
2023/10/25 07:42:10;;;;;;;13.68;4.82;;;;;;;;;;4998690;28;20104;-67
2023/10/25 07:44:36;;;;;;;11.05;5.20;;;;;;;;;;4995081;28;20037;-68
2023/10/25 07:47:03;;;;;;;10.50;5.63;;;;;;;;;;4991421;28;20098;-67
2023/10/25 07:49:29;;;;;;;9.52;4.25;;;;;;;;;;4992001;28;20099;-67
2023/10/25 07:51:55;;;;;;;8.88;4.55;;;;;;;;;;4991971;28;20029;-67
2023/10/25 07:54:22;;;;;;;12.23;5.32;;;;;;;;;;4991370;28;20068;-67
2023/10/25 07:56:48;;;;;;;11.88;4.88;;;;;;;;;;4991029;28;20045;-67
2023/10/25 07:59:14;;;;;;;10.00;4.32;;;;;;;;;;4992292;28;20026;-67
2023/10/25 08:01:40;;;;;;;12.88;4.07;;;;;;;;;;4994732;28;20738;-67
2023/10/25 08:04:06;;;;;;;18.65;5.13;;;;;;;;;;4991875;28;20042;-67
2023/10/25 08:06:32;;;;;;;11.75;5.03;;;;;;;;;;4991851;28;20072;-68
2023/10/25 08:08:59;;;;;;;11.13;4.43;;;;;;;;;;4993099;28;20032;-67
2023/10/25 08:11:25;;;;;;;9.13;4.43;;;;;;;;;;4991078;28;20026;-68
2023/10/25 08:13:51;;;;;;;9.70;4.90;;;;;;;;;;4990528;28;20030;-67
2023/10/25 08:16:17;;;;;;;11.07;5.00;;;;;;;;;;4990912;28;20030;-67
2023/10/25 08:18:43;;;;;;;9.98;4.50;;;;;;;;;;4990521;28;20041;-67
2023/10/25 08:21:13;;;;;;;12.60;5.18;;;;;;;;;;4991285;28;20985;-67
2023/10/25 08:23:40;;;;;;;10.02;4.80;;;;;;;;;;4990645;28;20176;-67
2023/10/25 08:26:06;;;;;;;13.05;5.72;;;;;;;;;;4990868;28;20021;-67
2023/10/25 08:28:32;;;;;;;9.93;5.28;;;;;;;;;;4991508;28;20049;-67
2023/10/25 08:30:58;;;;;;;10.05;4.68;;;;;;;;;;4990676;28;20042;-67
2023/10/25 08:33:24;;;;;;;8.15;5.07;;;;;;;;;;4991220;28;20037;-68
2023/10/25 08:36:01;;;;;;;11.43;5.13;;;;;;;;;;4990659;28;20044;-67
2023/10/25 08:38:27;;;;;;;13.50;5.35;;;;;;;;;;4987834;28;20066;-67
2023/10/25 08:40:53;;;;;;;10.73;6.15;;;;;;;;;;4987428;28;20037;-67
2023/10/25 08:43:21;;;;;;;10.55;5.25;;;;;;;;;;4989883;28;20030;-67
2023/10/25 08:45:47;;;;;;;10.40;5.22;;;;;;;;;;4988510;28;20112;-68
2023/10/25 08:48:14;;;;;;;10.35;5.03;;;;;;;;;;4990122;28;20040;-67
2023/10/25 08:50:40;;;;;;;9.68;5.00;;;;;;;;;;4991157;28;20038;-67
2023/10/25 08:53:06;;;;;;;10.23;4.65;;;;;;;;;;4991865;28;20049;-67
2023/10/25 08:55:32;;;;;;;11.98;4.82;;;;;;;;;;4989473;28;20041;-65
2023/10/25 08:57:58;;;;;;;11.38;5.63;;;;;;;;;;4994180;28;20037;-64
2023/10/25 09:00:28;;;;;;;9.65;5.70;;;;;;;;;;4994205;28;20033;-64
2023/10/25 09:02:54;;;;;;;11.50;4.78;;;;;;;;;;4994342;28;20037;-64
2023/10/25 09:05:21;;;;;;;10.13;4.53;;;;;;;;;;4994696;28;20084;-64
2023/10/25 09:07:47;;;;;;;12.10;5.88;;;;;;;;;;4994659;28;20036;-64
2023/10/25 09:10:22;;;;;;;9.65;4.90;;;;;;;;;;4993943;28;20041;-64
2023/10/25 09:12:49;;;;;;;11.60;5.13;;;;;;;;;;4993196;28;20903;-65
2023/10/25 09:15:28;;;;;;;7.70;4.45;;;;;;;;;;4993355;28;20064;-64
2023/10/25 09:17:54;;;;;;;10.63;5.00;;;;;;;;;;4993901;28;20093;-64
2023/10/25 09:20:26;;;;;;;11.30;4.57;;;;;;;;;;4994279;28;20508;-65
2023/10/25 09:22:54;;;;;;;9.57;5.50;;;;;;;;;;4994939;28;20075;-64
2023/10/25 09:25:29;;;;;;;8.13;4.38;;;;;;;;;;4993908;28;20044;-65
2023/10/25 09:27:55;;;;;;;12.20;4.15;;;;;;;;;;4995128;28;20064;-64
2023/10/25 09:30:21;;;;;;;10.77;5.10;;;;;;;;;;4994091;28;20042;-65
2023/10/25 09:32:48;;;;;;;11.75;4.88;;;;;;;;;;4994674;28;20107;-64
2023/10/25 09:35:14;;;;;;;10.10;4.97;;;;;;;;;;4994016;28;20041;-64
2023/10/25 09:37:40;;;;;;;10.00;4.68;;;;;;;;;;4993786;28;21507;-65
2023/10/25 09:40:06;;;;;;;9.82;4.30;;;;;;;;;;4992686;28;21775;-64
2023/10/25 09:42:33;;;;;;;14.35;5.13;;;;;;;;;;4993377;28;20068;-65
2023/10/25 09:45:05;;;;;;;9.77;4.85;;;;;;;;;;4994450;28;20067;-64
2023/10/25 09:47:38;;;;;;;7.90;4.40;;;;;;;;;;4997187;28;20034;-64
2023/10/25 09:50:10;;;;;;;9.05;4.60;;;;;;;;;;4998216;28;20116;-64
2023/10/25 09:52:39;;;;;;;15.32;4.97;;;;;;;;;;4998323;28;20026;-65
2023/10/25 09:55:09;;;;;;;9.65;4.35;;;;;;;;;;4998378;28;20712;-65
2023/10/25 09:57:36;;;;;;;9.35;4.50;;;;;;;;;;4997782;28;20140;-65
2023/10/25 10:00:05;;;;;;;11.27;4.97;;;;;;;;;;4998749;28;20490;-64
2023/10/25 10:02:43;;;;;;;8.32;4.40;;;;;;;;;;4997208;28;22029;-64
2023/10/25 10:05:12;;;;;;;12.00;5.55;;;;;;;;;;4997132;28;20034;-65
2023/10/25 10:07:38;;;;;;;8.38;4.32;;;;;;;;;;4996949;28;20038;-65
2023/10/25 10:10:10;;;;;;;12.15;4.05;;;;;;;;;;4997755;28;20068;-65
2023/10/25 10:12:37;;;;;;;10.70;4.53;;;;;;;;;;4998710;28;20450;-64
2023/10/25 10:15:03;;;;;;;12.75;5.18;;;;;;;;;;4996652;28;20465;-65
2023/10/25 10:17:34;;;;;;;9.10;4.32;;;;;;;;;;4997631;28;20223;-65
2023/10/25 10:20:04;;;;;;;8.75;4.97;;;;;;;;;;4996790;28;20026;-64
2023/10/25 10:22:30;;;;;;;10.23;4.60;;;;;;;;;;4997121;28;20033;-64
2023/10/25 10:25:04;;;;;;;9.25;4.47;;;;;;;;;;4997317;28;20026;-64
2023/10/25 10:27:42;;;;;;;8.73;4.07;;;;;;;;;;4997796;28;20168;-64
2023/10/25 10:30:29;;;;;;;9.10;4.15;;;;;;;;;;4997021;28;20101;-64
2023/10/25 10:32:55;;;;;;;11.20;4.78;;;;;;;;;;4997860;28;20479;-64
2023/10/25 10:35:21;;;;;;;10.30;5.15;;;;;;;;;;4996524;28;20631;-64
2023/10/25 10:37:54;;;;;;;11.38;4.68;;;;;;;;;;4995824;28;21042;-64
2023/10/25 10:40:20;;;;;;;10.30;4.57;;;;;;;;;;4996467;28;20613;-64
2023/10/25 10:42:46;;;;;;;9.10;4.15;;;;;;;;;;4996173;28;20427;-64
2023/10/25 10:45:20;;;;;;;9.20;4.40;;;;;;;;;;4997980;28;20029;-64
2023/10/25 10:47:49;;;;;;;9.77;5.05;;;;;;;;;;4997315;28;21700;-64
2023/10/25 10:50:18;;;;;;;6.53;4.03;;;;;;;;;;4996525;28;20176;-64
2023/10/25 10:52:44;;;;;;;8.80;4.20;;;;;;;;;;4996301;28;21804;-64
2023/10/25 10:55:13;;;;;;;8.75;4.40;;;;;;;;;;4996164;28;20041;-64
2023/10/25 10:57:40;;;;;;;10.40;5.10;;;;;;;;;;4994239;28;20955;-64
2023/10/25 11:00:09;;;;;;;10.27;4.55;;;;;;;;;;4995781;28;20030;-65
2023/10/25 11:02:38;;;;;;;9.30;5.00;;;;;;;;;;4994949;28;20048;-64
2023/10/25 11:05:05;;;;;;;9.30;3.92;;;;;;;;;;4996600;28;20737;-64
2023/10/25 11:07:31;;;;;;;11.85;4.60;;;;;;;;;;4994242;28;20041;-64
2023/10/25 11:09:57;;;;;;;14.10;4.60;;;;;;;;;;4996375;28;20088;-65
2023/10/25 11:12:24;;;;;;;9.95;4.03;;;;;;;;;;4994850;28;20030;-65
2023/10/25 11:14:51;;;;;;;11.48;4.40;;;;;;;;;;4995170;28;20151;-65
2023/10/25 11:17:17;;;;;;;9.85;4.45;;;;;;;;;;4995325;28;20045;-65
2023/10/25 11:19:47;;;;;;;10.82;4.22;;;;;;;;;;4995930;28;20034;-65
2023/10/25 11:22:13;;;;;;;8.27;3.72;;;;;;;;;;4994772;28;20041;-65
2023/10/25 11:24:40;;;;;;;11.25;4.43;;;;;;;;;;4996269;28;21030;-65
2023/10/25 11:27:06;;;;;;;10.30;3.95;;;;;;;;;;4995661;28;20041;-65
2023/10/25 11:29:35;;;;;;;10.07;4.07;;;;;;;;;;4996219;28;20448;-65
2023/10/25 11:32:04;;;;;;;10.90;4.35;;;;;;;;;;4995530;28;20038;-65
2023/10/25 11:34:33;;;;;;;14.20;4.03;;;;;;;;;;4994364;28;20061;-65
2023/10/25 11:37:03;;;;;;;8.10;4.22;;;;;;;;;;4996211;28;20910;-65
2023/10/25 11:39:34;;;;;;;10.80;4.38;;;;;;;;;;4994654;28;20053;-65
2023/10/25 11:42:00;;;;;;;10.23;4.35;;;;;;;;;;4994933;28;20972;-65
2023/10/25 11:44:27;;;;;;;9.07;4.68;;;;;;;;;;4995480;28;20395;-65
2023/10/25 11:46:58;;;;;;;10.90;4.80;;;;;;;;;;4995535;28;20955;-64
2023/10/25 11:49:25;;;;;;;9.43;4.43;;;;;;;;;;4993353;28;20064;-65
2023/10/25 11:51:53;;;;;;;12.07;4.80;;;;;;;;;;4993321;28;20099;-65
2023/10/25 11:54:22;;;;;;;11.55;4.70;;;;;;;;;;4993789;28;20037;-65
2023/10/25 11:56:48;;;;;;;9.95;5.00;;;;;;;;;;4993313;28;20498;-65
2023/10/25 11:59:16;;;;;;;13.98;4.97;;;;;;;;;;4993806;28;20505;-65
2023/10/25 12:01:42;;;;;;;10.45;4.60;;;;;;;;;;4993585;28;20116;-65
2023/10/25 12:04:09;;;;;;;11.48;5.20;;;;;;;;;;4996567;28;20049;-65
2023/10/25 12:06:37;;;;;;;12.15;4.90;;;;;;;;;;4995070;28;20033;-65
2023/10/25 12:09:03;;;;;;;11.32;5.28;;;;;;;;;;4995158;28;20148;-65
2023/10/25 12:11:29;;;;;;;9.43;5.38;;;;;;;;;;4994326;28;20076;-65
2023/10/25 12:13:55;;;;;;;18.60;5.47;;;;;;;;;;4993913;28;20064;-65
2023/10/25 12:16:21;;;;;;;13.85;6.32;;;;;;;;;;4993159;28;20547;-65
2023/10/25 12:18:47;;;;;;;10.43;5.13;;;;;;;;;;4993524;28;20125;-65
2023/10/25 12:21:14;;;;;;;10.70;5.57;;;;;;;;;;4994617;28;20029;-65
2023/10/25 12:23:40;;;;;;;11.00;4.88;;;;;;;;;;4991426;28;20026;-65
2023/10/25 12:26:06;;;;;;;16.40;6.35;;;;;;;;;;4993756;28;20030;-65
2023/10/25 12:28:32;;;;;;;9.82;4.70;;;;;;;;;;4994343;28;20724;-65
2023/10/25 12:30:58;;;;;;;8.98;4.32;;;;;;;;;;4994129;28;20040;-65
2023/10/25 12:33:28;;;;;;;11.73;4.03;;;;;;;;;;4994946;28;20084;-65
2023/10/25 12:35:54;;;;;;;8.65;4.05;;;;;;;;;;4992948;28;20022;-65
2023/10/25 12:38:20;;;;;;;7.03;3.60;;;;;;;;;;4993453;28;20099;-66
2023/10/25 12:40:47;;;;;;;11.15;4.40;;;;;;;;;;4993678;28;20030;-65
2023/10/25 12:43:13;;;;;;;10.88;4.07;;;;;;;;;;4994120;28;20057;-66
2023/10/25 12:45:39;;;;;;;10.13;4.30;;;;;;;;;;4994357;28;20096;-66
2023/10/25 12:48:05;;;;;;;9.23;4.20;;;;;;;;;;4993148;28;20029;-66
2023/10/25 12:50:31;;;;;;;9.00;3.80;;;;;;;;;;4993586;28;20038;-65
2023/10/25 12:52:57;;;;;;;10.70;4.40;;;;;;;;;;4992991;28;20500;-66
2023/10/25 12:55:24;;;;;;;9.85;4.07;;;;;;;;;;4994216;28;21029;-66
2023/10/25 12:57:51;;;;;;;10.32;4.00;;;;;;;;;;4994176;28;20089;-66
2023/10/25 13:00:17;;;;;;;9.63;3.72;;;;;;;;;;4995115;28;20037;-66
2023/10/25 13:02:43;;;;;;;8.20;3.75;;;;;;;;;;4994498;28;20025;-66
2023/10/25 13:05:09;;;;;;;8.90;3.60;;;;;;;;;;4992796;28;20601;-66
2023/10/25 13:07:35;;;;;;;7.53;3.75;;;;;;;;;;4994522;28;20042;-66
2023/10/25 13:10:01;;;;;;;8.60;3.53;;;;;;;;;;4993995;28;20040;-66
2023/10/25 13:12:27;;;;;;;10.77;4.25;;;;;;;;;;4994874;28;20408;-65
2023/10/25 13:14:53;;;;;;;9.63;3.80;;;;;;;;;;4993872;28;20175;-65
2023/10/25 13:17:20;;;;;;;10.60;3.80;;;;;;;;;;4993956;28;20038;-66
2023/10/25 13:19:46;;;;;;;8.32;3.78;;;;;;;;;;4992544;28;20033;-66
2023/10/25 13:22:12;;;;;;;7.47;3.50;;;;;;;;;;4992812;28;20106;-65
2023/10/25 13:24:40;;;;;;;13.23;4.40;;;;;;;;;;4993359;28;20212;-66
2023/10/25 13:27:06;;;;;;;9.70;4.30;;;;;;;;;;4993531;28;20077;-66
2023/10/25 13:29:32;;;;;;;10.20;4.47;;;;;;;;;;4994081;28;20041;-66
2023/10/25 13:31:58;;;;;;;9.07;4.10;;;;;;;;;;4993895;28;20508;-66
2023/10/25 13:34:24;;;;;;;7.25;3.97;;;;;;;;;;4993657;28;20615;-66
2023/10/25 13:36:50;;;;;;;7.35;4.10;;;;;;;;;;4992962;28;20033;-65
2023/10/25 13:39:16;;;;;;;9.88;3.95;;;;;;;;;;4992038;28;20037;-66
2023/10/25 13:41:42;;;;;;;8.07;3.92;;;;;;;;;;4993247;28;20535;-66
2023/10/25 13:44:08;;;;;;;7.80;4.40;;;;;;;;;;4993687;28;20049;-66
2023/10/25 13:46:34;;;;;;;7.65;4.63;;;;;;;;;;4993840;28;20089;-65
2023/10/25 13:49:00;;;;;;;10.82;4.18;;;;;;;;;;4994083;28;20120;-65
2023/10/25 13:51:27;;;;;;;10.80;4.55;;;;;;;;;;4994415;28;20044;-66
2023/10/25 13:53:53;;;;;;;7.07;3.95;;;;;;;;;;4993635;28;20479;-66
2023/10/25 13:56:19;;;;;;;8.82;4.40;;;;;;;;;;4992598;28;20061;-66
2023/10/25 13:58:45;;;;;;;10.20;4.57;;;;;;;;;;4991577;28;20053;-66
2023/10/25 14:01:11;;;;;;;7.60;3.90;;;;;;;;;;4990792;28;20025;-66
2023/10/25 14:03:37;;;;;;;7.50;3.55;;;;;;;;;;4990295;28;20382;-66
2023/10/25 14:06:04;;;;;;;8.75;4.13;;;;;;;;;;4992556;28;20148;-66
2023/10/25 14:08:33;;;;;;;11.57;3.95;;;;;;;;;;4991844;28;20073;-66
2023/10/25 14:10:59;;;;;;;7.55;4.03;;;;;;;;;;4993173;28;20036;-66
2023/10/25 14:13:25;;;;;;;8.48;3.72;;;;;;;;;;4993472;28;20041;-65
2023/10/25 14:15:51;;;;;;;12.40;4.00;;;;;;;;;;4993817;28;20029;-66
2023/10/25 14:18:17;;;;;;;9.15;4.25;;;;;;;;;;4990303;28;20034;-66
2023/10/25 14:20:43;;;;;;;10.77;5.38;;;;;;;;;;4991678;28;20117;-66
2023/10/25 14:23:09;;;;;;;9.20;4.13;;;;;;;;;;4992353;28;20026;-66
2023/10/25 14:25:39;;;;;;;11.20;4.63;;;;;;;;;;4992319;28;20025;-66
2023/10/25 14:28:15;;;;;;;9.02;4.05;;;;;;;;;;4991716;28;20519;-66
2023/10/25 14:30:41;;;;;;;8.90;5.18;;;;;;;;;;4993157;28;20040;-65